Impacts METAR Board
IDs:

KATL - Atlanta/Hartsfield-J, GA, US

Updated at: 0900 UTC 25 May 2020
Potential Impact None Slight Moderate High
Time 24/21Z 24/22Z 24/23Z 25/00Z 25/01Z 25/02Z 25/03Z 25/04Z 25/05Z 25/06Z 25/07Z 25/08Z 25/09Z
Temp87 84 74 73 74 74 71 73 73 72 71 70 69
Dewpt66 64 62 62 62 62 63 63 63 65 66 66 66
Altim30.04 30.03 30.04 30.02 30.02 30.03 30.05 30.08 30.07 30.07 30.05 30.03 30.02
VIS10 10 10 10 10 10 10 10 10 4 10 10 10
CIG170 170 180 180 100 120 250 55 180 70 110 220 220
CoverBKNBKNBKNBKNBKNBKNBKNBKNBKNBKNBKNBKNBKN
FltCatVFRVFRVFRVFRVFRVFRVFRVFRVFRMVFRVFRVFRVFR
WX------------------+RA-RA----
WDir60220250180110270310701001301009090
WSpd3 4 9 3 5 3 3 7 4 7 4 6 4
WGst-- -- 24 -- -- -- -- -- -- -- -- -- --
Raw hourly METARs
KATL 242052Z 06003KT 10SM SCT045TCU BKN170 BKN250 31/19 A3004 RMK AO2 LTG DSNT NE AND S AND SW SLP160 CB DSNT NE & S-SW TCU NE & W-NW T03060189 56019
KATL 242152Z 22004KT 10SM SCT045 SCT140 BKN170 BKN250 29/18 A3003 RMK AO2 LTG DSNT S AND SW SLP160 CB DSNT NE AND S-W TCU DSNT NE T02890178
KATL 242252Z COR 25009G24KT 10SM SCT045 SCT120 BKN180 BKN250 23/17 A3004 RMK AO2 LTG DSNT ALQDS SLP163 CB DSNT SE AND W T02330167
KATL 242352Z 18003KT 10SM SCT045 SCT120 BKN180 BKN250 23/17 A3002 RMK AO2 LTG DSNT E AND NW SLP156 CB DSNT NE AND NW T02280167 10311 20228 58007
KATL 250052Z 11005KT 10SM SCT045 BKN100 BKN120 BKN180 BKN250 23/17 A3002 RMK AO2 SLP156 SHRA SE T02330167
KATL 250152Z 27003KT 10SM FEW045 BKN120 BKN180 BKN250 23/17 A3003 RMK AO2 SLP160 LTG DSNT NE AND E CB DSNT NE AND E T02330167
KATL 250252Z 31003KT 10SM FEW045 SCT120 SCT180 BKN250 22/17 A3005 RMK AO2 SLP168 LTG DSNT E CB DSNT E T02170172 53013
KATL 250352Z 07007KT 10SM SCT047 BKN055 BKN250 23/17 A3008 RMK AO2 SLP173 T02280172
KATL 250452Z 10004KT 10SM SCT050 SCT120 BKN180 BKN210 23/17 A3007 RMK AO2 SLP171 T02280172 403110206
KATL 250552Z 13007KT 4SM +RA SCT045TCU BKN070 BKN100 BKN220 22/18 A3007 RMK AO2 RAB47 SLP172 TCU OHD-E-S P0002 60002 T02220183 10239 20217 51005
KATL 250652Z 10004KT 10SM -RA FEW044 SCT080 BKN110 BKN220 22/19 A3005 RMK AO2 TSB10E25 SLP167 TS DSPTD P0066 T02170189
KATL 250752Z 09006KT 10SM FEW120 BKN220 21/19 A3003 RMK AO2 RAE0657 SLP156 P0000 T02110189
KATL 250852Z 09004KT 10SM FEW080 FEW120 BKN220 21/19 A3002 RMK AO2 SLP155 60066 T02060189 56017



Page loaded:  09:24 UTC  |   02:24 AM Pacific  |   03:24 AM Mountain  |   04:24 AM Central  |   05:24 AM Eastern

 

ADVISORIES

FORECASTS

FORECASTS

OBSERVATIONS

USER TOOLS

ABOUT US